createdAt,value
2022-08-23T00:00:13.952Z,20.54
2022-08-23T00:01:13.942Z,20.51
2022-08-23T00:02:23.878Z,20.44
2022-08-23T00:03:14.998Z,20.41
2022-08-23T00:04:13.919Z,20.41
2022-08-23T00:05:13.919Z,20.42
2022-08-23T00:06:13.890Z,20.37
2022-08-23T00:07:13.904Z,20.38
2022-08-23T00:08:13.879Z,20.35
2022-08-23T00:09:13.879Z,20.31
2022-08-23T00:10:14.047Z,20.31
2022-08-23T00:11:13.836Z,20.35
2022-08-23T00:12:13.812Z,20.22
2022-08-23T00:13:13.814Z,20.25
2022-08-23T00:14:13.795Z,20.22
2022-08-23T00:15:13.818Z,20.22
2022-08-23T00:16:13.781Z,20.20
2022-08-23T00:17:33.278Z,20.26
2022-08-23T00:18:14.765Z,20.20
2022-08-23T00:19:13.756Z,20.23
2022-08-23T00:20:13.729Z,20.19
2022-08-23T00:21:13.747Z,20.19
2022-08-23T00:22:13.720Z,20.16
2022-08-23T00:23:13.730Z,20.08
2022-08-23T00:24:13.690Z,20.08
2022-08-23T00:25:14.422Z,20.12
2022-08-23T00:26:14.417Z,20.12
2022-08-23T00:27:13.965Z,20.10
2022-08-23T00:28:14.834Z,20.08
2022-08-23T00:29:13.639Z,20.01
2022-08-23T00:30:16.422Z,19.95
2022-08-23T00:31:13.616Z,19.95
2022-08-23T00:32:13.605Z,20.07
2022-08-23T00:33:13.984Z,20.07
2022-08-23T00:34:13.589Z,20.10
2022-08-23T00:35:26.292Z,20.02
2022-08-23T00:36:14.567Z,20.00
2022-08-23T00:37:13.556Z,20.00
2022-08-23T00:38:32.402Z,19.92
2022-08-23T00:39:15.454Z,19.98
2022-08-23T00:40:13.618Z,19.92
2022-08-23T00:41:13.512Z,19.94
2022-08-23T00:42:13.498Z,19.89
2022-08-23T00:43:14.424Z,19.92
2022-08-23T00:44:13.466Z,19.95
2022-08-23T00:45:13.470Z,19.92
2022-08-23T00:46:14.436Z,19.87
2022-08-23T00:47:13.438Z,19.87
2022-08-23T00:48:13.416Z,19.89
2022-08-23T00:49:13.403Z,19.94
2022-08-23T00:50:23.864Z,19.92
2022-08-23T00:51:14.457Z,19.79
2022-08-23T00:52:13.389Z,19.92
2022-08-23T00:53:13.928Z,19.75
2022-08-23T00:54:13.355Z,19.86
2022-08-23T00:55:13.360Z,19.82
2022-08-23T00:56:13.340Z,19.82
2022-08-23T00:57:13.927Z,19.75
2022-08-23T00:58:13.313Z,19.80
2022-08-23T00:59:13.931Z,19.76
2022-08-23T01:00:13.313Z,19.75
2022-08-23T01:01:13.927Z,19.71
2022-08-23T01:02:13.364Z,19.71
2022-08-23T01:03:13.253Z,19.71
2022-08-23T01:04:13.267Z,19.60
2022-08-23T01:05:13.937Z,19.72
2022-08-23T01:06:13.926Z,19.61
2022-08-23T01:07:13.215Z,19.64
2022-08-23T01:08:13.197Z,19.67
2022-08-23T01:09:13.190Z,19.61
2022-08-23T01:10:20.099Z,19.64
2022-08-23T01:11:14.178Z,19.58
2022-08-23T01:12:13.939Z,19.55
2022-08-23T01:13:13.169Z,19.57
2022-08-23T01:14:13.927Z,19.52
2022-08-23T01:15:13.131Z,19.55
2022-08-23T01:16:13.139Z,19.49
2022-08-23T01:17:13.941Z,19.46
2022-08-23T01:18:13.089Z,19.40
2022-08-23T01:19:19.928Z,19.47
2022-08-23T01:20:13.078Z,19.42
2022-08-23T01:21:13.067Z,19.31
2022-08-23T01:22:13.066Z,19.35
2022-08-23T01:23:13.047Z,19.38
2022-08-23T01:24:19.267Z,19.39
2022-08-23T01:25:14.934Z,19.40
2022-08-23T01:26:13.010Z,19.38
2022-08-23T01:27:13.954Z,19.39
2022-08-23T01:28:13.004Z,19.34
2022-08-23T01:29:12.983Z,19.31
2022-08-23T01:30:12.971Z,19.27
2022-08-23T01:31:13.944Z,19.25
2022-08-23T01:32:19.933Z,19.27
2022-08-23T01:33:12.939Z,19.23
2022-08-23T01:34:12.935Z,19.21
2022-08-23T01:35:12.966Z,19.24
2022-08-23T01:36:12.925Z,19.20
2022-08-23T01:37:12.896Z,19.25
2022-08-23T01:38:12.904Z,19.21
2022-08-23T01:39:12.870Z,19.25
2022-08-23T01:40:19.502Z,19.21
2022-08-23T01:41:12.868Z,19.17
2022-08-23T01:42:12.850Z,19.23
2022-08-23T01:43:13.428Z,19.16
2022-08-23T01:44:12.827Z,19.12
2022-08-23T01:45:13.445Z,19.06
2022-08-23T01:46:12.809Z,19.15
2022-08-23T01:47:12.796Z,19.10
2022-08-23T01:48:12.774Z,19.17
2022-08-23T01:49:12.772Z,19.10
2022-08-23T01:50:12.751Z,19.13
2022-08-23T01:51:12.770Z,19.10
2022-08-23T01:52:13.438Z,19.06
2022-08-23T01:53:12.726Z,19.12
2022-08-23T01:54:19.438Z,18.97
2022-08-23T01:55:12.712Z,18.97
2022-08-23T01:56:12.690Z,18.99
2022-08-23T01:57:12.970Z,19.01
2022-08-23T01:58:12.687Z,18.99
2022-08-23T01:59:12.668Z,18.96
2022-08-23T02:00:12.653Z,18.94
2022-08-23T02:01:12.688Z,18.97
2022-08-23T02:02:12.629Z,19.06
2022-08-23T02:03:19.449Z,18.96
2022-08-23T02:04:12.620Z,19.02
2022-08-23T02:05:18.382Z,19.01
2022-08-23T02:06:12.591Z,18.93
2022-08-23T02:07:12.577Z,18.99
2022-08-23T02:08:12.563Z,18.96
2022-08-23T02:09:17.886Z,18.91
2022-08-23T02:10:13.546Z,18.93
2022-08-23T02:11:12.624Z,18.84
2022-08-23T02:12:12.525Z,18.94
2022-08-23T02:13:12.523Z,18.90
2022-08-23T02:14:13.438Z,18.78
2022-08-23T02:15:12.522Z,18.89
2022-08-23T02:16:15.446Z,18.82
2022-08-23T02:17:12.466Z,18.78
2022-08-23T02:18:13.466Z,18.84
2022-08-23T02:19:12.457Z,18.66
2022-08-23T02:20:12.459Z,18.72
2022-08-23T02:21:12.430Z,18.74
2022-08-23T02:22:12.938Z,18.83
2022-08-23T02:23:12.403Z,18.65
2022-08-23T02:24:12.388Z,18.68
2022-08-23T02:25:12.383Z,18.66
2022-08-23T02:26:12.468Z,18.68
2022-08-23T02:27:12.355Z,18.65
2022-08-23T02:28:12.345Z,18.65
2022-08-23T02:29:12.339Z,18.54
2022-08-23T02:30:12.332Z,18.50
2022-08-23T02:31:12.308Z,18.53
2022-08-23T02:32:12.471Z,18.51
2022-08-23T02:33:12.949Z,18.46
2022-08-23T02:34:14.944Z,18.41
2022-08-23T02:35:18.953Z,18.44
2022-08-23T02:36:12.304Z,18.41
2022-08-23T02:37:12.252Z,18.39
2022-08-23T02:38:12.257Z,18.36
2022-08-23T02:39:12.231Z,18.28
2022-08-23T02:40:12.618Z,18.35
2022-08-23T02:41:12.207Z,18.32
2022-08-23T02:42:12.944Z,18.32
2022-08-23T02:43:12.942Z,18.34
2022-08-23T02:44:13.228Z,18.34
2022-08-23T02:45:12.157Z,18.23
2022-08-23T02:46:12.150Z,18.26
2022-08-23T02:47:12.124Z,18.29
2022-08-23T02:48:12.153Z,18.29
2022-08-23T02:49:12.107Z,18.32
2022-08-23T02:50:12.134Z,18.25
2022-08-23T02:51:12.088Z,18.21
2022-08-23T02:52:12.089Z,18.20
2022-08-23T02:53:12.066Z,18.16
2022-08-23T02:54:12.060Z,18.14
2022-08-23T02:55:12.062Z,18.25
2022-08-23T02:56:17.084Z,18.17
2022-08-23T02:57:13.038Z,18.11
2022-08-23T02:58:12.019Z,18.17
2022-08-23T02:59:12.005Z,18.14
2022-08-23T03:00:12.000Z,18.16
2022-08-23T03:01:11.994Z,18.11
2022-08-23T03:02:12.057Z,18.11
2022-08-23T03:03:11.961Z,18.13
2022-08-23T03:04:11.945Z,18.10
2022-08-23T03:05:11.934Z,18.16
2022-08-23T03:06:24.651Z,18.09
2022-08-23T03:07:12.910Z,18.04
2022-08-23T03:08:14.456Z,18.10
2022-08-23T03:09:11.885Z,18.11
2022-08-23T03:10:11.932Z,18.11
2022-08-23T03:11:11.866Z,17.96
2022-08-23T03:12:12.446Z,17.98
2022-08-23T03:13:14.448Z,17.99
2022-08-23T03:14:18.463Z,17.98
2022-08-23T03:15:14.457Z,17.96
2022-08-23T03:16:11.982Z,18.01
2022-08-23T03:17:12.463Z,18.01
2022-08-23T03:18:11.808Z,18.01
2022-08-23T03:19:11.782Z,18.01
2022-08-23T03:20:11.782Z,17.96
2022-08-23T03:21:11.761Z,17.95
2022-08-23T03:22:11.765Z,17.92
2022-08-23T03:23:11.748Z,17.94
2022-08-23T03:24:11.984Z,17.92
2022-08-23T03:25:11.720Z,17.86
2022-08-23T03:26:11.711Z,17.91
2022-08-23T03:27:11.704Z,17.80
2022-08-23T03:28:11.692Z,17.77
2022-08-23T03:29:11.686Z,17.76
2022-08-23T03:30:19.162Z,17.80
2022-08-23T03:31:12.663Z,17.74
2022-08-23T03:32:11.671Z,17.76
2022-08-23T03:33:11.626Z,17.79
2022-08-23T03:34:11.630Z,17.80
2022-08-23T03:35:14.411Z,17.80
2022-08-23T03:36:12.463Z,17.83
2022-08-23T03:37:11.597Z,17.74
2022-08-23T03:38:11.982Z,17.77
2022-08-23T03:39:12.461Z,17.66
2022-08-23T03:40:11.659Z,17.68
2022-08-23T03:41:11.547Z,17.62
2022-08-23T03:42:12.459Z,17.76
2022-08-23T03:43:11.518Z,17.74
2022-08-23T03:44:11.527Z,17.71
2022-08-23T03:45:18.465Z,17.65
2022-08-23T03:46:18.459Z,17.62
2022-08-23T03:47:14.469Z,17.62
2022-08-23T03:48:14.458Z,17.63
2022-08-23T03:49:11.494Z,17.63
2022-08-23T03:50:11.457Z,17.60
2022-08-23T03:51:13.963Z,17.60
2022-08-23T03:52:11.969Z,17.65
2022-08-23T03:53:12.121Z,17.60
2022-08-23T03:54:11.422Z,17.55
2022-08-23T03:55:11.387Z,17.60
2022-08-23T03:56:11.424Z,17.53
2022-08-23T03:57:11.369Z,17.53
2022-08-23T03:58:11.367Z,17.53
2022-08-23T03:59:11.338Z,17.36
2022-08-23T04:00:11.361Z,17.39
2022-08-23T04:01:11.320Z,17.43
2022-08-23T04:02:11.396Z,17.45
2022-08-23T04:03:11.320Z,17.45
2022-08-23T04:04:11.965Z,17.43
2022-08-23T04:05:11.301Z,17.38
2022-08-23T04:06:11.288Z,17.39
2022-08-23T04:07:11.286Z,17.35
2022-08-23T04:08:11.246Z,17.38
2022-08-23T04:09:11.247Z,17.30
2022-08-23T04:10:11.240Z,17.28
2022-08-23T04:11:11.214Z,17.30
2022-08-23T04:12:17.552Z,17.24
2022-08-23T04:13:11.965Z,17.33
2022-08-23T04:14:11.202Z,17.30
2022-08-23T04:15:13.986Z,17.25
2022-08-23T04:16:17.970Z,17.25
2022-08-23T04:17:11.173Z,17.27
2022-08-23T04:18:11.154Z,17.27
2022-08-23T04:19:11.129Z,17.28
2022-08-23T04:20:11.125Z,17.30
2022-08-23T04:21:11.129Z,17.25
2022-08-23T04:22:11.096Z,17.28
2022-08-23T04:23:11.081Z,17.39
2022-08-23T04:24:11.071Z,17.39
2022-08-23T04:25:14.082Z,17.36
2022-08-23T04:26:12.492Z,17.40
2022-08-23T04:27:11.039Z,17.43
2022-08-23T04:28:11.032Z,17.38
2022-08-23T04:29:11.010Z,17.40
2022-08-23T04:30:11.999Z,17.40
2022-08-23T04:31:11.009Z,17.43
2022-08-23T04:32:12.108Z,17.42
2022-08-23T04:33:13.296Z,17.42
2022-08-23T04:34:11.984Z,17.36
2022-08-23T04:35:10.968Z,17.46
2022-08-23T04:36:10.956Z,17.43
2022-08-23T04:37:10.931Z,17.51
2022-08-23T04:38:24.752Z,17.42
2022-08-23T04:39:11.906Z,17.47
2022-08-23T04:40:11.010Z,17.45
2022-08-23T04:41:11.388Z,17.43
2022-08-23T04:42:14.680Z,17.42
2022-08-23T04:43:10.857Z,17.43
2022-08-23T04:44:10.856Z,17.39
2022-08-23T04:45:10.839Z,17.46
2022-08-23T04:46:10.857Z,17.46
2022-08-23T04:47:10.813Z,17.40
2022-08-23T04:48:12.006Z,17.45
2022-08-23T04:49:10.822Z,17.39
2022-08-23T04:50:10.789Z,17.39
2022-08-23T04:51:10.785Z,17.36
2022-08-23T04:52:18.614Z,17.43
2022-08-23T04:53:11.778Z,17.42
2022-08-23T04:54:10.743Z,17.36
2022-08-23T04:55:12.469Z,17.46
2022-08-23T04:56:10.715Z,17.54
2022-08-23T04:57:10.714Z,17.51
2022-08-23T04:58:10.715Z,17.39
2022-08-23T04:59:12.979Z,17.45
2022-08-23T05:00:10.688Z,17.45
2022-08-23T05:01:13.508Z,17.43
2022-08-23T05:02:11.700Z,17.39
2022-08-23T05:03:10.638Z,17.38
2022-08-23T05:04:10.651Z,17.42
2022-08-23T05:05:10.640Z,17.42
2022-08-23T05:06:10.624Z,17.42
2022-08-23T05:07:10.595Z,17.42
2022-08-23T05:08:10.598Z,17.45
2022-08-23T05:09:10.603Z,17.40
2022-08-23T05:10:10.594Z,17.36
2022-08-23T05:11:10.564Z,17.47
2022-08-23T05:12:13.467Z,17.53
2022-08-23T05:13:10.540Z,17.46
2022-08-23T05:14:10.527Z,17.47
2022-08-23T05:15:11.010Z,17.39
2022-08-23T05:16:13.487Z,17.40
2022-08-23T05:17:10.499Z,17.45
2022-08-23T05:18:10.486Z,17.51
2022-08-23T05:19:12.977Z,17.53
2022-08-23T05:20:12.974Z,17.53
2022-08-23T05:21:10.467Z,17.51
2022-08-23T05:22:10.442Z,17.57
2022-08-23T05:23:10.427Z,17.60
2022-08-23T05:24:13.829Z,17.63
2022-08-23T05:25:10.972Z,17.60
2022-08-23T05:26:10.402Z,17.60
2022-08-23T05:27:13.483Z,17.68
2022-08-23T05:28:12.973Z,17.68
2022-08-23T05:29:10.372Z,17.68
2022-08-23T05:30:15.114Z,17.68
2022-08-23T05:31:11.903Z,17.71
2022-08-23T05:32:10.349Z,17.62
2022-08-23T05:33:10.311Z,17.71
2022-08-23T05:34:10.514Z,17.71
2022-08-23T05:35:10.299Z,17.73
2022-08-23T05:36:10.287Z,17.71
2022-08-23T05:37:10.279Z,17.77
2022-08-23T05:38:10.270Z,17.74
2022-08-23T05:39:10.505Z,17.71
2022-08-23T05:40:10.622Z,17.81
2022-08-23T05:41:10.988Z,17.81
2022-08-23T05:42:10.215Z,17.94
2022-08-23T05:43:10.212Z,17.86
2022-08-23T05:44:12.977Z,17.87
2022-08-23T05:45:10.195Z,17.92
2022-08-23T05:46:13.473Z,17.91
2022-08-23T05:47:11.598Z,17.92
2022-08-23T05:48:10.152Z,17.87
2022-08-23T05:49:12.978Z,17.91
2022-08-23T05:50:15.492Z,18.04
2022-08-23T05:51:10.124Z,17.99
2022-08-23T05:52:12.981Z,18.11
2022-08-23T05:53:10.123Z,18.16
2022-08-23T05:54:10.978Z,18.19
2022-08-23T05:55:10.082Z,18.28
2022-08-23T05:56:10.508Z,18.21
2022-08-23T05:57:11.008Z,18.20
2022-08-23T05:58:10.037Z,18.23
2022-08-23T05:59:12.454Z,18.34
2022-08-23T06:00:12.999Z,18.35
2022-08-23T06:01:10.044Z,18.34
2022-08-23T06:02:10.001Z,18.41
2022-08-23T06:03:10.004Z,18.41
2022-08-23T06:04:24.480Z,18.42
2022-08-23T06:05:12.484Z,18.51
2022-08-23T06:06:09.963Z,18.51
2022-08-23T06:07:10.008Z,18.51
2022-08-23T06:08:09.965Z,18.51
2022-08-23T06:09:16.473Z,18.68
2022-08-23T06:10:16.201Z,18.64
2022-08-23T06:11:09.896Z,18.60
2022-08-23T06:12:09.897Z,18.72
2022-08-23T06:13:09.880Z,18.75
2022-08-23T06:14:09.944Z,18.86
2022-08-23T06:15:09.885Z,18.79
2022-08-23T06:16:14.336Z,18.83
2022-08-23T06:17:10.836Z,18.87
2022-08-23T06:18:16.485Z,18.89
2022-08-23T06:19:10.009Z,18.94
2022-08-23T06:20:09.869Z,18.96
2022-08-23T06:21:12.485Z,19.01
2022-08-23T06:22:12.482Z,19.06
2022-08-23T06:23:11.219Z,19.05
2022-08-23T06:24:12.489Z,19.17
2022-08-23T06:25:10.057Z,19.21
2022-08-23T06:26:09.753Z,19.17
2022-08-23T06:27:09.760Z,19.20
2022-08-23T06:28:10.506Z,19.27
2022-08-23T06:29:09.819Z,19.24
2022-08-23T06:30:11.934Z,19.28
2022-08-23T06:31:09.748Z,19.32
2022-08-23T06:32:09.755Z,19.34
2022-08-23T06:33:10.500Z,19.35
2022-08-23T06:34:09.788Z,19.38
2022-08-23T06:35:29.252Z,19.39
2022-08-23T06:36:13.481Z,19.45
2022-08-23T06:37:09.653Z,19.43
2022-08-23T06:38:09.610Z,19.46
2022-08-23T06:39:09.606Z,19.58
2022-08-23T06:40:09.651Z,19.60
2022-08-23T06:41:09.566Z,19.58
2022-08-23T06:42:36.592Z,19.67
2022-08-23T06:43:10.558Z,19.68
2022-08-23T06:44:10.509Z,19.68
2022-08-23T06:45:10.484Z,19.68
2022-08-23T06:46:12.502Z,19.76
2022-08-23T06:47:09.533Z,19.76
2022-08-23T06:48:09.535Z,19.82
2022-08-23T06:49:09.995Z,19.87
2022-08-23T06:50:09.992Z,20.01
2022-08-23T06:51:09.463Z,19.89
2022-08-23T06:52:09.454Z,19.90
2022-08-23T06:53:10.062Z,19.94
2022-08-23T06:54:09.428Z,19.98
2022-08-23T06:55:13.628Z,20.00
2022-08-23T06:56:09.994Z,19.97
2022-08-23T06:57:09.398Z,20.04
2022-08-23T06:58:15.989Z,20.08
2022-08-23T06:59:09.396Z,20.13
2022-08-23T07:00:09.525Z,20.17
2022-08-23T07:01:23.276Z,20.20
2022-08-23T07:02:10.422Z,20.22
2022-08-23T07:03:09.432Z,20.30
2022-08-23T07:04:09.321Z,20.33
2022-08-23T07:05:09.339Z,20.35
2022-08-23T07:06:09.512Z,20.41
2022-08-23T07:07:11.542Z,20.42
2022-08-23T07:08:09.995Z,20.44
2022-08-23T07:09:09.265Z,20.40
2022-08-23T07:10:09.522Z,20.44
2022-08-23T07:11:09.251Z,20.50
2022-08-23T07:12:09.245Z,20.46
2022-08-23T07:13:09.216Z,20.51
2022-08-23T07:14:11.996Z,20.60
2022-08-23T07:15:15.983Z,20.64
2022-08-23T07:16:09.248Z,20.69
2022-08-23T07:17:09.212Z,20.71
2022-08-23T07:18:13.483Z,20.66
2022-08-23T07:19:09.211Z,20.72
2022-08-23T07:20:11.998Z,20.76
2022-08-23T07:21:09.146Z,20.75
2022-08-23T07:22:09.133Z,20.79
2022-08-23T07:23:09.135Z,20.81
2022-08-23T07:24:09.109Z,20.83
2022-08-23T07:25:09.991Z,20.96
2022-08-23T07:26:09.087Z,20.93
2022-08-23T07:27:09.053Z,20.93
2022-08-23T07:28:11.688Z,20.96
2022-08-23T07:29:09.522Z,21.00
2022-08-23T07:30:09.047Z,20.96
2022-08-23T07:31:14.744Z,20.91
2022-08-23T07:32:10.128Z,21.03
2022-08-23T07:33:10.059Z,21.00
2022-08-23T07:34:08.993Z,21.05
2022-08-23T07:35:08.984Z,21.05
2022-08-23T07:36:09.493Z,21.09
2022-08-23T07:37:15.448Z,21.11
2022-08-23T07:38:09.967Z,21.18
2022-08-23T07:39:09.500Z,21.24
2022-08-23T07:40:09.505Z,21.18
2022-08-23T07:41:09.921Z,21.27
2022-08-23T07:42:22.910Z,21.36
2022-08-23T07:43:24.493Z,21.31
2022-08-23T07:44:08.912Z,21.34
2022-08-23T07:45:10.015Z,21.33
2022-08-23T07:46:09.515Z,21.37
2022-08-23T07:47:08.869Z,21.37
2022-08-23T07:48:23.527Z,21.46
2022-08-23T07:49:09.824Z,21.58
2022-08-23T07:50:09.509Z,21.49
2022-08-23T07:51:08.824Z,21.63
2022-08-23T07:52:08.787Z,21.61
2022-08-23T07:53:09.512Z,21.71
2022-08-23T07:54:08.801Z,21.68
2022-08-23T07:55:08.778Z,21.75
2022-08-23T07:56:08.747Z,21.79
2022-08-23T07:57:09.503Z,21.75
2022-08-23T07:58:08.725Z,21.83
2022-08-23T07:59:34.558Z,21.98
2022-08-23T08:00:15.502Z,21.86
2022-08-23T08:01:08.696Z,21.98
2022-08-23T08:02:09.827Z,21.99
2022-08-23T08:03:09.156Z,22.04
2022-08-23T08:04:09.034Z,22.02
2022-08-23T08:05:08.686Z,22.12
2022-08-23T08:06:08.644Z,22.12
2022-08-23T08:07:19.220Z,22.12
2022-08-23T08:08:09.617Z,22.20
2022-08-23T08:09:08.606Z,22.19
2022-08-23T08:10:08.624Z,22.17
2022-08-23T08:11:09.501Z,22.26
2022-08-23T08:12:08.580Z,22.20
2022-08-23T08:13:08.564Z,22.26
2022-08-23T08:14:09.032Z,22.31
2022-08-23T08:15:09.036Z,22.35
2022-08-23T08:16:11.599Z,22.26
2022-08-23T08:17:08.517Z,22.27
2022-08-23T08:18:08.515Z,22.33
2022-08-23T08:19:08.500Z,22.46
2022-08-23T08:20:08.496Z,22.42
2022-08-23T08:21:08.497Z,22.41
2022-08-23T08:22:08.465Z,22.45
2022-08-23T08:23:11.000Z,22.45
2022-08-23T08:24:08.453Z,22.51
2022-08-23T08:25:08.449Z,22.64
2022-08-23T08:26:08.426Z,22.51
2022-08-23T08:27:08.420Z,22.57
2022-08-23T08:28:11.585Z,22.56
2022-08-23T08:29:10.507Z,22.66
2022-08-23T08:30:08.549Z,22.70
2022-08-23T08:31:08.426Z,22.69
2022-08-23T08:32:08.386Z,22.67
2022-08-23T08:33:09.366Z,22.76
2022-08-23T08:34:08.332Z,22.76
2022-08-23T08:35:08.366Z,22.81
2022-08-23T08:36:08.537Z,22.79
2022-08-23T08:37:08.309Z,22.81
2022-08-23T08:38:09.006Z,22.81
2022-08-23T08:39:08.280Z,22.81
2022-08-23T08:40:08.296Z,22.85
2022-08-23T08:41:08.532Z,22.81
2022-08-23T08:42:08.249Z,22.86
2022-08-23T08:43:09.004Z,22.81
2022-08-23T08:44:08.227Z,22.79
2022-08-23T08:45:08.234Z,22.85
2022-08-23T08:46:08.245Z,22.88
2022-08-23T08:47:08.202Z,22.96
2022-08-23T08:48:12.704Z,22.93
2022-08-23T08:49:09.257Z,23.04
2022-08-23T08:50:08.162Z,23.04
2022-08-23T08:51:08.541Z,23.12
2022-08-23T08:52:08.163Z,23.06
2022-08-23T08:53:08.127Z,23.07
2022-08-23T08:54:08.148Z,23.04
2022-08-23T08:55:08.104Z,23.23
2022-08-23T08:56:11.015Z,23.21
2022-08-23T08:57:10.014Z,23.19
2022-08-23T08:58:08.104Z,23.21
2022-08-23T08:59:08.065Z,23.32
2022-08-23T09:00:08.061Z,23.35
2022-08-23T09:01:08.041Z,23.39
2022-08-23T09:02:16.933Z,23.26
2022-08-23T09:03:09.077Z,23.35
2022-08-23T09:04:08.011Z,23.34
2022-08-23T09:05:07.995Z,23.34
2022-08-23T09:06:07.987Z,23.35
2022-08-23T09:07:07.977Z,23.32
2022-08-23T09:08:08.050Z,23.38
2022-08-23T09:09:07.983Z,23.45
2022-08-23T09:10:07.952Z,23.49
2022-08-23T09:11:14.545Z,23.45
2022-08-23T09:12:07.923Z,23.45
2022-08-23T09:13:08.542Z,23.64
2022-08-23T09:14:07.898Z,23.71
2022-08-23T09:15:07.918Z,23.79
2022-08-23T09:16:07.938Z,23.75
2022-08-23T09:17:08.507Z,23.74
2022-08-23T09:18:07.852Z,23.75
2022-08-23T09:19:08.524Z,23.75
2022-08-23T09:20:07.864Z,23.86
2022-08-23T09:21:07.833Z,23.84
2022-08-23T09:22:07.813Z,23.99
2022-08-23T09:23:07.801Z,24.06
2022-08-23T09:24:07.786Z,24.14
2022-08-23T09:25:10.221Z,24.19
2022-08-23T09:26:07.766Z,24.21
2022-08-23T09:27:07.765Z,24.26
2022-08-23T09:28:08.524Z,24.33
2022-08-23T09:29:07.751Z,24.27
2022-08-23T09:30:07.756Z,24.37
2022-08-23T09:31:08.834Z,24.41
2022-08-23T09:32:08.520Z,24.36
2022-08-23T09:33:08.696Z,24.42
2022-08-23T09:34:07.687Z,24.48
2022-08-23T09:35:07.691Z,24.56
2022-08-23T09:36:08.422Z,24.74
2022-08-23T09:37:10.521Z,24.79
2022-08-23T09:38:11.355Z,24.75
2022-08-23T09:39:07.674Z,24.83
2022-08-23T09:40:07.659Z,24.94
2022-08-23T09:41:07.633Z,24.89
2022-08-23T09:42:07.596Z,24.94
2022-08-23T09:43:07.589Z,24.90
2022-08-23T09:44:08.516Z,24.97
2022-08-23T09:45:07.587Z,25.07
2022-08-23T09:46:14.569Z,25.08
2022-08-23T09:47:08.057Z,25.14
2022-08-23T09:48:07.534Z,25.27
2022-08-23T09:49:10.525Z,25.26
2022-08-23T09:50:07.529Z,25.30
2022-08-23T09:51:07.528Z,25.45
2022-08-23T09:52:07.484Z,25.56
2022-08-23T09:53:07.510Z,25.59
2022-08-23T09:54:07.468Z,25.59
2022-08-23T09:55:14.026Z,25.66
2022-08-23T09:56:07.449Z,25.59
2022-08-23T09:57:07.462Z,25.61
2022-08-23T09:58:07.558Z,25.67
2022-08-23T09:59:08.024Z,25.71
2022-08-23T10:00:07.501Z,25.89
2022-08-23T10:01:07.438Z,25.89
2022-08-23T10:02:07.455Z,25.91
2022-08-23T10:03:07.660Z,26.01
2022-08-23T10:04:07.560Z,26.13
2022-08-23T10:05:07.981Z,26.01
2022-08-23T10:06:09.022Z,26.08
2022-08-23T10:07:07.332Z,26.04
2022-08-23T10:08:14.009Z,26.17
2022-08-23T10:09:07.324Z,26.23
2022-08-23T10:10:07.291Z,26.32
2022-08-23T10:11:08.017Z,26.28
2022-08-23T10:12:07.575Z,26.27
2022-08-23T10:13:08.033Z,26.38
2022-08-23T10:14:08.026Z,26.46
2022-08-23T10:15:08.549Z,26.50
2022-08-23T10:16:08.069Z,26.50
2022-08-23T10:17:07.212Z,26.39
2022-08-23T10:18:07.201Z,26.41
2022-08-23T10:19:07.192Z,26.49
2022-08-23T10:20:07.194Z,26.49
2022-08-23T10:21:07.179Z,26.51
2022-08-23T10:22:10.029Z,26.61
2022-08-23T10:23:07.155Z,26.65
2022-08-23T10:24:09.062Z,26.60
2022-08-23T10:25:08.032Z,26.57
2022-08-23T10:26:07.110Z,26.59
2022-08-23T10:27:08.030Z,26.51
2022-08-23T10:28:07.096Z,26.46
2022-08-23T10:29:07.090Z,26.46
2022-08-23T10:30:07.090Z,26.56
2022-08-23T10:31:07.635Z,26.64
2022-08-23T10:32:07.074Z,26.76
2022-08-23T10:33:08.081Z,26.93
2022-08-23T10:34:09.527Z,26.97
2022-08-23T10:35:07.018Z,27.08
2022-08-23T10:36:07.019Z,27.27
2022-08-23T10:37:07.028Z,27.30
2022-08-23T10:38:09.530Z,27.53
2022-08-23T10:39:06.990Z,27.62
2022-08-23T10:40:09.546Z,27.68
2022-08-23T10:41:07.535Z,27.84
2022-08-23T10:42:09.535Z,27.83
2022-08-23T10:43:06.952Z,27.86
2022-08-23T10:44:06.927Z,27.84
2022-08-23T10:45:06.914Z,27.71
2022-08-23T10:46:07.647Z,27.71
2022-08-23T10:47:07.535Z,27.77
2022-08-23T10:48:06.920Z,27.84
2022-08-23T10:49:06.869Z,27.99
2022-08-23T10:50:06.854Z,27.86
2022-08-23T10:51:06.853Z,27.83
2022-08-23T10:52:06.835Z,27.86
2022-08-23T10:53:07.545Z,27.83
2022-08-23T10:54:06.836Z,27.65
2022-08-23T10:55:06.809Z,27.53
2022-08-23T10:56:13.540Z,27.34
2022-08-23T10:57:06.784Z,27.25
2022-08-23T10:58:06.769Z,26.98
2022-08-23T10:59:06.779Z,26.83
2022-08-23T11:00:07.532Z,26.90
2022-08-23T11:01:06.783Z,26.97
2022-08-23T11:02:09.598Z,26.96
2022-08-23T11:03:06.723Z,27.11
2022-08-23T11:04:06.739Z,27.31
2022-08-23T11:05:07.754Z,27.42
2022-08-23T11:06:07.548Z,27.45
2022-08-23T11:07:06.673Z,27.46
2022-08-23T11:08:06.677Z,27.52
2022-08-23T11:09:09.540Z,27.68
2022-08-23T11:10:06.677Z,27.68
2022-08-23T11:11:07.632Z,27.91
2022-08-23T11:12:11.079Z,28.09
2022-08-23T11:13:06.627Z,28.17
2022-08-23T11:14:06.603Z,28.27
2022-08-23T11:15:06.612Z,28.36
2022-08-23T11:16:06.612Z,28.42
2022-08-23T11:17:06.565Z,28.51
2022-08-23T11:18:06.562Z,28.57
2022-08-23T11:19:09.545Z,28.64
2022-08-23T11:20:27.567Z,28.58
2022-08-23T11:21:06.532Z,28.65
2022-08-23T11:22:07.531Z,28.52
2022-08-23T11:23:06.504Z,28.39
2022-08-23T11:24:06.519Z,28.39
2022-08-23T11:25:06.505Z,28.48
2022-08-23T11:26:06.480Z,28.55
2022-08-23T11:27:07.229Z,28.62
2022-08-23T11:28:07.048Z,28.72
2022-08-23T11:29:06.439Z,28.67
2022-08-23T11:30:06.438Z,28.73
2022-08-23T11:31:06.452Z,28.74
2022-08-23T11:32:06.450Z,28.87
2022-08-23T11:33:07.040Z,28.77
2022-08-23T11:34:06.593Z,28.74
2022-08-23T11:35:09.060Z,28.70
2022-08-23T11:36:07.048Z,28.73
2022-08-23T11:37:06.359Z,28.74
2022-08-23T11:38:08.086Z,28.87
2022-08-23T11:39:13.043Z,28.82
2022-08-23T11:40:07.399Z,28.94
2022-08-23T11:41:13.048Z,29.08
2022-08-23T11:42:07.052Z,29.29
2022-08-23T11:43:06.312Z,29.26
2022-08-23T11:44:06.592Z,29.12
2022-08-23T11:45:06.267Z,29.02
2022-08-23T11:46:21.065Z,29.05
2022-08-23T11:47:06.581Z,29.18
2022-08-23T11:48:09.059Z,29.30
2022-08-23T11:49:06.245Z,29.41
2022-08-23T11:50:06.589Z,29.47
2022-08-23T11:51:06.222Z,29.41
2022-08-23T11:52:07.052Z,29.37
2022-08-23T11:53:06.184Z,29.39
2022-08-23T11:54:07.059Z,29.45
2022-08-23T11:55:09.581Z,29.33
2022-08-23T11:56:07.050Z,29.26
2022-08-23T11:57:06.140Z,29.14
2022-08-23T11:58:07.065Z,29.33
2022-08-23T11:59:08.677Z,29.41
2022-08-23T12:00:07.096Z,29.41
2022-08-23T12:01:06.100Z,29.51
2022-08-23T12:02:07.101Z,29.64
2022-08-23T12:03:09.155Z,29.82
2022-08-23T12:04:07.235Z,29.85
2022-08-23T12:05:06.496Z,30.06
2022-08-23T12:06:12.645Z,30.11
2022-08-23T12:07:06.554Z,30.34
2022-08-23T12:08:06.030Z,30.42
2022-08-23T12:09:06.556Z,30.45
2022-08-23T12:10:06.006Z,30.42
2022-08-23T12:11:16.588Z,30.37
2022-08-23T12:12:06.726Z,30.25
2022-08-23T12:13:06.573Z,30.11
2022-08-23T12:14:06.003Z,30.10
2022-08-23T12:15:06.639Z,30.30
2022-08-23T12:16:06.078Z,30.54
2022-08-23T12:17:06.575Z,30.70
2022-08-23T12:18:05.920Z,30.98
2022-08-23T12:19:06.602Z,31.04
2022-08-23T12:20:16.527Z,31.07
2022-08-23T12:21:09.556Z,30.98
2022-08-23T12:22:06.565Z,30.76
2022-08-23T12:23:06.654Z,30.90
2022-08-23T12:24:06.576Z,30.88
2022-08-23T12:25:05.875Z,30.83
2022-08-23T12:26:06.556Z,30.93
2022-08-23T12:27:06.558Z,30.82
2022-08-23T12:28:05.842Z,30.76
2022-08-23T12:29:06.561Z,30.93
2022-08-23T12:30:05.812Z,30.98
2022-08-23T12:31:07.856Z,31.20
2022-08-23T12:32:06.566Z,31.32
2022-08-23T12:33:06.562Z,31.30
2022-08-23T12:34:07.609Z,31.42
2022-08-23T12:35:06.561Z,31.28
2022-08-23T12:36:15.453Z,31.34
2022-08-23T12:37:09.467Z,31.38
2022-08-23T12:38:06.593Z,31.40
2022-08-23T12:39:06.571Z,31.47
2022-08-23T12:40:06.607Z,31.25
2022-08-23T12:41:05.691Z,31.28
2022-08-23T12:42:20.571Z,31.20
2022-08-23T12:43:05.658Z,31.34
2022-08-23T12:44:06.600Z,31.56
2022-08-23T12:45:05.641Z,31.50
2022-08-23T12:46:06.854Z,31.76
2022-08-23T12:47:05.606Z,31.94
2022-08-23T12:48:06.571Z,32.07
2022-08-23T12:49:06.570Z,32.16
2022-08-23T12:50:06.702Z,32.41
2022-08-23T12:51:05.572Z,32.39
2022-08-23T12:52:08.068Z,32.46